Time;durP1;ratioP1;P1;durP2;ratioP2;P2;SDS_P1;SDS_P2;PMS_P1;PMS_P2;Temp;Humidity;BMP_temperature;BMP_pressure;BME280_temperature;BME280_humidity;BME280_pressure;Samples;Min_cycle;Max_cycle;Signal;HPM_P1;HPM_P2
2021/11/01 00:00:13;;;;;;;12.57;4.78;;;;;;;;;;2082103;28;20627;-61
2021/11/01 00:01:13;;;;;;;16.85;5.32;;;;;;;;;;2085153;28;20188;-61
2021/11/01 00:02:14;;;;;;;18.77;4.93;;;;;;;;;;2081328;28;20176;-62
2021/11/01 00:03:15;;;;;;;17.85;4.80;;;;;;;;;;2084956;28;20200;-64
2021/11/01 00:04:15;;;;;;;13.00;5.10;;;;;;;;;;2093012;28;20175;-63
2021/11/01 00:05:15;;;;;;;20.98;5.88;;;;;;;;;;2086996;28;20252;-63
2021/11/01 00:06:16;;;;;;;16.70;5.38;;;;;;;;;;2078033;28;20593;-62
2021/11/01 00:07:17;;;;;;;15.82;5.57;;;;;;;;;;2090659;28;20648;-62
2021/11/01 00:08:18;;;;;;;16.38;4.90;;;;;;;;;;2086860;28;20230;-62
2021/11/01 00:09:18;;;;;;;16.83;5.72;;;;;;;;;;2074005;28;20207;-65
2021/11/01 00:10:19;;;;;;;15.73;5.35;;;;;;;;;;2065386;28;20173;-64
2021/11/01 00:11:19;;;;;;;15.85;5.05;;;;;;;;;;2070940;28;20229;-63
2021/11/01 00:12:19;;;;;;;16.27;5.10;;;;;;;;;;2089930;28;20687;-63
2021/11/01 00:13:20;;;;;;;18.70;5.95;;;;;;;;;;2083797;28;20191;-63
2021/11/01 00:14:20;;;;;;;18.48;5.50;;;;;;;;;;2085270;28;20188;-64
2021/11/01 00:15:20;;;;;;;15.10;5.95;;;;;;;;;;2090370;28;20251;-63
2021/11/01 00:16:21;;;;;;;18.00;6.57;;;;;;;;;;2091951;28;20654;-62
2021/11/01 00:17:22;;;;;;;19.75;6.43;;;;;;;;;;2090516;28;20194;-63
2021/11/01 00:18:22;;;;;;;23.02;6.88;;;;;;;;;;2090288;28;20258;-63
2021/11/01 00:19:22;;;;;;;16.35;6.40;;;;;;;;;;2095248;28;20555;-63
2021/11/01 00:20:23;;;;;;;18.98;6.25;;;;;;;;;;2098990;28;20174;-61
2021/11/01 00:21:24;;;;;;;21.85;6.75;;;;;;;;;;2090921;28;20663;-64
2021/11/01 00:22:24;;;;;;;18.77;7.93;;;;;;;;;;2087258;28;20184;-64
2021/11/01 00:23:25;;;;;;;22.75;7.72;;;;;;;;;;2085146;28;20279;-61
2021/11/01 00:24:25;;;;;;;18.83;9.65;;;;;;;;;;2096070;28;20190;-61
2021/11/01 00:25:25;;;;;;;20.80;10.15;;;;;;;;;;2099491;28;20173;-61
2021/11/01 00:26:25;;;;;;;22.55;11.27;;;;;;;;;;2099333;28;20183;-63
2021/11/01 00:27:26;;;;;;;22.20;11.20;;;;;;;;;;2099235;28;20232;-63
2021/11/01 00:28:26;;;;;;;21.88;11.55;;;;;;;;;;2099285;28;20220;-62
2021/11/01 00:29:26;;;;;;;25.17;11.32;;;;;;;;;;2099303;28;20594;-62
2021/11/01 00:30:26;;;;;;;23.75;11.63;;;;;;;;;;2095133;28;20552;-63
2021/11/01 00:31:27;;;;;;;26.85;13.07;;;;;;;;;;2096483;28;20175;-61
2021/11/01 00:32:27;;;;;;;28.67;12.25;;;;;;;;;;2076569;28;20200;-64
2021/11/01 00:33:27;;;;;;;26.63;11.65;;;;;;;;;;2079249;28;20200;-61
2021/11/01 00:34:28;;;;;;;23.73;12.40;;;;;;;;;;2098791;28;20212;-64
2021/11/01 00:35:28;;;;;;;23.25;12.23;;;;;;;;;;2098469;28;20262;-63
2021/11/01 00:36:28;;;;;;;23.30;13.02;;;;;;;;;;2089394;28;20182;-64
2021/11/01 00:37:29;;;;;;;24.70;12.38;;;;;;;;;;2087187;28;20218;-63
2021/11/01 00:38:29;;;;;;;29.58;13.10;;;;;;;;;;2093006;28;20640;-64
2021/11/01 00:39:29;;;;;;;30.95;12.98;;;;;;;;;;2081833;28;20255;-62
2021/11/01 00:40:30;;;;;;;32.38;13.15;;;;;;;;;;2082654;28;20179;-64
2021/11/01 00:41:30;;;;;;;22.05;13.15;;;;;;;;;;2092033;28;20257;-60
2021/11/01 00:42:31;;;;;;;21.70;12.93;;;;;;;;;;2090177;28;20615;-60
2021/11/01 00:43:31;;;;;;;30.70;14.77;;;;;;;;;;2085342;28;20250;-64
2021/11/01 00:44:32;;;;;;;28.33;13.38;;;;;;;;;;2093496;28;20236;-60
2021/11/01 00:45:32;;;;;;;27.95;13.98;;;;;;;;;;2082541;28;20180;-62
2021/11/01 00:46:33;;;;;;;29.70;13.50;;;;;;;;;;2088234;28;20190;-62
2021/11/01 00:47:33;;;;;;;28.45;14.73;;;;;;;;;;2090976;28;20179;-64
2021/11/01 00:48:33;;;;;;;23.00;13.18;;;;;;;;;;2085722;28;20274;-65
2021/11/01 00:49:34;;;;;;;26.98;15.02;;;;;;;;;;2088695;28;20221;-65
2021/11/01 00:50:37;;;;;;;30.15;15.05;;;;;;;;;;2090254;28;20633;-64
2021/11/01 00:51:40;;;;;;;28.92;15.20;;;;;;;;;;2089317;28;20663;-63
2021/11/01 00:52:40;;;;;;;27.33;15.82;;;;;;;;;;2097902;28;20207;-62
2021/11/01 00:53:47;;;;;;;32.17;16.00;;;;;;;;;;2090681;28;20199;-63
2021/11/01 00:54:48;;;;;;;29.98;15.30;;;;;;;;;;2093263;28;20173;-63
2021/11/01 00:55:49;;;;;;;30.30;16.02;;;;;;;;;;2082137;28;20196;-62
2021/11/01 00:56:49;;;;;;;33.75;15.40;;;;;;;;;;2082421;28;20171;-64
2021/11/01 00:57:50;;;;;;;36.38;16.90;;;;;;;;;;2082618;28;20548;-62
2021/11/01 00:58:50;;;;;;;27.45;16.05;;;;;;;;;;2086045;28;20188;-63
2021/11/01 00:59:51;;;;;;;30.05;15.63;;;;;;;;;;2087429;28;20191;-64
2021/11/01 01:00:52;;;;;;;35.35;16.90;;;;;;;;;;2084346;28;20771;-64
2021/11/01 01:01:52;;;;;;;27.75;15.85;;;;;;;;;;2089474;28;20168;-64
2021/11/01 01:02:52;;;;;;;24.70;16.08;;;;;;;;;;2081492;28;20184;-64
2021/11/01 01:03:53;;;;;;;31.05;16.48;;;;;;;;;;2087738;28;20171;-63
2021/11/01 01:04:53;;;;;;;34.08;16.67;;;;;;;;;;2091494;28;20628;-64
2021/11/01 01:05:58;;;;;;;26.05;15.30;;;;;;;;;;2089722;28;20218;-62
2021/11/01 01:07:01;;;;;;;25.77;15.20;;;;;;;;;;2077184;28;20169;-62
2021/11/01 01:08:01;;;;;;;31.52;16.67;;;;;;;;;;2087721;28;20179;-64
2021/11/01 01:09:01;;;;;;;31.83;16.45;;;;;;;;;;2081052;28;20206;-63
2021/11/01 01:10:03;;;;;;;29.08;15.70;;;;;;;;;;2090736;28;20160;-63
2021/11/01 01:11:03;;;;;;;32.10;16.52;;;;;;;;;;2089945;28;20182;-63
2021/11/01 01:12:05;;;;;;;22.85;14.55;;;;;;;;;;2098931;28;20203;-62
2021/11/01 01:13:05;;;;;;;28.60;15.68;;;;;;;;;;2081803;28;20226;-62
2021/11/01 01:14:06;;;;;;;31.67;16.60;;;;;;;;;;2084005;28;20180;-63
2021/11/01 01:15:09;;;;;;;27.02;15.15;;;;;;;;;;2089986;28;20176;-63
2021/11/01 01:16:12;;;;;;;28.27;15.15;;;;;;;;;;2082895;28;20218;-63
2021/11/01 01:17:13;;;;;;;28.98;15.52;;;;;;;;;;2090521;28;20247;-64
2021/11/01 01:18:18;;;;;;;34.55;16.27;;;;;;;;;;2089455;28;20627;-63
2021/11/01 01:19:22;;;;;;;30.83;16.63;;;;;;;;;;2081178;28;20172;-61
2021/11/01 01:20:23;;;;;;;37.90;15.10;;;;;;;;;;2082540;28;20211;-63
2021/11/01 01:22:43;;;;;;;31.58;14.77;;;;;;;;;;2085597;28;20172;-63
2021/11/01 01:23:43;;;;;;;27.98;14.77;;;;;;;;;;2089610;28;20305;-62
2021/11/01 01:24:43;;;;;;;29.67;15.23;;;;;;;;;;2090975;28;20214;-63
2021/11/01 01:25:50;;;;;;;25.15;14.85;;;;;;;;;;2090962;28;20181;-63
2021/11/01 01:26:52;;;;;;;31.92;16.30;;;;;;;;;;2078073;28;20211;-63
2021/11/01 01:27:52;;;;;;;34.88;15.52;;;;;;;;;;2084403;28;20172;-62
2021/11/01 01:28:53;;;;;;;27.80;16.00;;;;;;;;;;2091817;28;20231;-62
2021/11/01 01:29:53;;;;;;;24.92;15.40;;;;;;;;;;2092034;28;20239;-62
2021/11/01 01:30:55;;;;;;;25.75;15.25;;;;;;;;;;2090637;28;20164;-63
2021/11/01 01:31:56;;;;;;;32.83;15.65;;;;;;;;;;2098191;28;20230;-64
2021/11/01 01:32:56;;;;;;;30.92;15.88;;;;;;;;;;2090764;28;20225;-64
2021/11/01 01:33:56;;;;;;;30.42;15.65;;;;;;;;;;2096621;28;20171;-63
2021/11/01 01:34:56;;;;;;;27.33;15.18;;;;;;;;;;2090611;28;20172;-63
2021/11/01 01:35:57;;;;;;;31.73;15.82;;;;;;;;;;2090085;28;20542;-63
2021/11/01 01:36:57;;;;;;;29.42;14.65;;;;;;;;;;2091213;28;20176;-61
2021/11/01 01:37:57;;;;;;;31.10;16.13;;;;;;;;;;2097081;28;20163;-61
2021/11/01 01:38:58;;;;;;;28.17;15.00;;;;;;;;;;2090270;28;20271;-62
2021/11/01 01:39:58;;;;;;;25.95;15.35;;;;;;;;;;2090775;28;20177;-64
2021/11/01 01:40:58;;;;;;;25.08;15.55;;;;;;;;;;2081538;28;20185;-63
2021/11/01 01:41:59;;;;;;;30.75;15.75;;;;;;;;;;2082810;28;20183;-63
2021/11/01 01:42:59;;;;;;;31.63;16.30;;;;;;;;;;2092666;28;20226;-63
2021/11/01 01:44:00;;;;;;;32.38;15.95;;;;;;;;;;2093834;28;20197;-63
2021/11/01 01:45:00;;;;;;;30.05;14.93;;;;;;;;;;2098484;28;20209;-63
2021/11/01 01:46:01;;;;;;;31.65;15.45;;;;;;;;;;2090955;28;20313;-64
2021/11/01 01:47:01;;;;;;;33.75;16.55;;;;;;;;;;2090637;28;20203;-64
2021/11/01 01:48:01;;;;;;;35.80;16.15;;;;;;;;;;2090122;28;20235;-63
2021/11/01 01:49:02;;;;;;;35.55;16.20;;;;;;;;;;2090260;28;20679;-62
2021/11/01 01:50:03;;;;;;;30.83;15.55;;;;;;;;;;2086790;28;20187;-62
2021/11/01 01:51:05;;;;;;;32.75;16.15;;;;;;;;;;2090698;28;20177;-62
2021/11/01 01:52:06;;;;;;;29.15;15.80;;;;;;;;;;2089373;28;20193;-63
2021/11/01 01:53:06;;;;;;;24.38;15.90;;;;;;;;;;2087374;28;20207;-63
2021/11/01 01:54:06;;;;;;;30.50;15.38;;;;;;;;;;2095984;28;20163;-63
2021/11/01 01:55:08;;;;;;;30.20;14.93;;;;;;;;;;2091434;28;20172;-63
2021/11/01 01:56:09;;;;;;;27.63;14.07;;;;;;;;;;2089448;28;20171;-64
2021/11/01 01:57:09;;;;;;;23.00;14.48;;;;;;;;;;2091141;28;20167;-64
2021/11/01 01:58:10;;;;;;;37.65;15.48;;;;;;;;;;2088971;28;20179;-63
2021/11/01 01:59:11;;;;;;;34.97;15.35;;;;;;;;;;2090123;28;20172;-63
2021/11/01 02:01:29;;;;;;;27.70;14.32;;;;;;;;;;2083967;28;20232;-64
2021/11/01 02:02:29;;;;;;;28.10;15.43;;;;;;;;;;2078551;28;20248;-63
2021/11/01 02:03:29;;;;;;;26.65;14.38;;;;;;;;;;2083598;28;20195;-61
2021/11/01 02:04:30;;;;;;;26.27;14.32;;;;;;;;;;2090740;28;20172;-62
2021/11/01 02:05:37;;;;;;;24.90;12.60;;;;;;;;;;2090725;28;20648;-62
2021/11/01 02:06:46;;;;;;;28.85;14.32;;;;;;;;;;2096803;28;20242;-63
2021/11/01 02:07:48;;;;;;;30.27;14.45;;;;;;;;;;2086335;28;20180;-65
2021/11/01 02:08:58;;;;;;;30.42;13.50;;;;;;;;;;2072861;28;20747;-62
2021/11/01 02:10:19;;;;;;;27.55;13.10;;;;;;;;;;2088875;28;20176;-64
2021/11/01 02:11:24;;;;;;;25.25;13.20;;;;;;;;;;2096400;28;20262;-63
2021/11/01 02:12:32;;;;;;;26.25;12.52;;;;;;;;;;2091975;28;20178;-67
2021/11/01 02:13:33;;;;;;;23.17;11.73;;;;;;;;;;2091300;28;20195;-64
2021/11/01 02:14:37;;;;;;;28.40;12.45;;;;;;;;;;2093667;28;20194;-63
2021/11/01 02:15:43;;;;;;;23.92;12.55;;;;;;;;;;2097386;28;20718;-62
2021/11/01 02:16:43;;;;;;;30.15;12.70;;;;;;;;;;2076128;28;20253;-62
2021/11/01 02:17:44;;;;;;;28.60;12.75;;;;;;;;;;2072595;28;20244;-61
2021/11/01 02:18:48;;;;;;;26.75;12.65;;;;;;;;;;2073619;28;20173;-63
2021/11/01 02:19:51;;;;;;;32.17;12.45;;;;;;;;;;2083750;28;20250;-64
2021/11/01 02:21:04;;;;;;;22.20;12.65;;;;;;;;;;2089462;28;20177;-63
2021/11/01 02:22:09;;;;;;;22.92;11.75;;;;;;;;;;2090239;28;20207;-63
2021/11/01 02:23:21;;;;;;;26.40;11.57;;;;;;;;;;2095015;28;20280;-62
2021/11/01 02:24:24;;;;;;;26.40;11.85;;;;;;;;;;2093958;28;20217;-63
2021/11/01 02:25:44;;;;;;;21.15;11.15;;;;;;;;;;2088798;28;20184;-64
2021/11/01 02:26:45;;;;;;;30.77;11.25;;;;;;;;;;2095129;28;20178;-63
2021/11/01 02:27:45;;;;;;;30.02;12.23;;;;;;;;;;2089842;28;20186;-64
2021/11/01 02:28:47;;;;;;;23.33;11.10;;;;;;;;;;2088416;28;20278;-64
2021/11/01 02:29:48;;;;;;;26.85;11.02;;;;;;;;;;2097795;28;20167;-63
2021/11/01 02:30:49;;;;;;;26.10;11.18;;;;;;;;;;2094159;28;20182;-61
2021/11/01 02:31:51;;;;;;;22.42;10.27;;;;;;;;;;2097925;28;20193;-63
2021/11/01 02:32:51;;;;;;;30.15;10.68;;;;;;;;;;2088602;28;20180;-63
2021/11/01 02:33:52;;;;;;;18.70;9.70;;;;;;;;;;2090784;28;20194;-61
2021/11/01 02:34:53;;;;;;;22.80;9.35;;;;;;;;;;2094587;28;20190;-62
2021/11/01 02:35:54;;;;;;;29.85;11.10;;;;;;;;;;2090306;28;20225;-66
2021/11/01 02:36:54;;;;;;;24.20;9.38;;;;;;;;;;2093179;28;20608;-63
2021/11/01 02:37:55;;;;;;;20.48;8.65;;;;;;;;;;2083979;28;20181;-62
2021/11/01 02:38:55;;;;;;;18.65;8.43;;;;;;;;;;2095067;28;20271;-63
2021/11/01 02:39:56;;;;;;;15.32;8.68;;;;;;;;;;2095048;28;20190;-62
2021/11/01 02:40:57;;;;;;;15.20;8.10;;;;;;;;;;2088190;28;20230;-63
2021/11/01 02:41:58;;;;;;;22.30;8.43;;;;;;;;;;2081049;28;20275;-64
2021/11/01 02:42:59;;;;;;;24.05;8.68;;;;;;;;;;2082706;28;20188;-63
2021/11/01 02:44:00;;;;;;;22.30;7.80;;;;;;;;;;2088540;28;20174;-63
2021/11/01 02:45:02;;;;;;;21.25;7.43;;;;;;;;;;2070942;28;20614;-63
2021/11/01 02:46:03;;;;;;;27.05;7.63;;;;;;;;;;2073338;28;20169;-63
2021/11/01 02:47:03;;;;;;;19.48;7.32;;;;;;;;;;2073738;28;20267;-62
2021/11/01 02:48:04;;;;;;;21.85;7.47;;;;;;;;;;2086783;28;20252;-64
2021/11/01 02:49:05;;;;;;;11.93;6.10;;;;;;;;;;2095567;28;20659;-62
2021/11/01 02:50:10;;;;;;;19.55;6.63;;;;;;;;;;2089683;28;20213;-62
2021/11/01 02:51:10;;;;;;;22.85;7.13;;;;;;;;;;2088831;28;20241;-63
2021/11/01 02:52:10;;;;;;;20.35;6.95;;;;;;;;;;2088010;28;20709;-62
2021/11/01 02:53:11;;;;;;;17.63;7.45;;;;;;;;;;2088850;28;20199;-62
2021/11/01 02:54:11;;;;;;;20.42;6.65;;;;;;;;;;2079630;28;20226;-63
2021/11/01 02:55:13;;;;;;;18.05;6.30;;;;;;;;;;2086707;28;20179;-60
2021/11/01 02:56:13;;;;;;;18.60;6.63;;;;;;;;;;2089955;28;20206;-62
2021/11/01 02:57:14;;;;;;;21.38;6.60;;;;;;;;;;2089432;28;20167;-62
2021/11/01 02:58:14;;;;;;;18.20;6.68;;;;;;;;;;2085784;28;20173;-59
2021/11/01 02:59:14;;;;;;;19.20;6.95;;;;;;;;;;2089071;28;20499;-62
2021/11/01 03:00:17;;;;;;;16.35;6.78;;;;;;;;;;2079685;28;20179;-61
2021/11/01 03:01:18;;;;;;;18.23;6.80;;;;;;;;;;2081392;28;20177;-61
2021/11/01 03:02:19;;;;;;;23.70;7.07;;;;;;;;;;2089274;28;20552;-64
2021/11/01 03:03:19;;;;;;;19.02;7.45;;;;;;;;;;2091350;28;20187;-62
2021/11/01 03:04:20;;;;;;;16.65;6.57;;;;;;;;;;2090444;28;20179;-63
2021/11/01 03:05:21;;;;;;;17.75;6.40;;;;;;;;;;2083095;28;20179;-63
2021/11/01 03:06:26;;;;;;;17.58;6.68;;;;;;;;;;2081958;28;20198;-63
2021/11/01 03:07:27;;;;;;;18.75;6.43;;;;;;;;;;2088307;28;20266;-62
2021/11/01 03:08:28;;;;;;;19.40;6.43;;;;;;;;;;2094467;28;20171;-62
2021/11/01 03:09:31;;;;;;;19.83;6.32;;;;;;;;;;2083434;28;20645;-61
2021/11/01 03:10:31;;;;;;;15.93;6.32;;;;;;;;;;2076008;28;20354;-61
2021/11/01 03:11:32;;;;;;;13.40;5.75;;;;;;;;;;2088745;28;20691;-63
2021/11/01 03:12:33;;;;;;;12.95;5.70;;;;;;;;;;2091422;28;20655;-63
2021/11/01 03:13:34;;;;;;;17.15;6.45;;;;;;;;;;2094193;28;20191;-62
2021/11/01 03:14:44;;;;;;;18.38;6.97;;;;;;;;;;2087075;28;20180;-62
2021/11/01 03:15:48;;;;;;;15.52;5.57;;;;;;;;;;2073866;28;20263;-63
2021/11/01 03:16:49;;;;;;;14.80;6.45;;;;;;;;;;2078598;28;20172;-63
2021/11/01 03:17:55;;;;;;;20.95;6.88;;;;;;;;;;2086363;28;20647;-63
2021/11/01 03:18:58;;;;;;;9.35;4.95;;;;;;;;;;2084781;28;20168;-61
2021/11/01 03:20:04;;;;;;;17.27;6.15;;;;;;;;;;2094422;28;20183;-62
2021/11/01 03:21:06;;;;;;;14.50;5.28;;;;;;;;;;2099153;28;20664;-60
2021/11/01 03:22:06;;;;;;;10.75;5.88;;;;;;;;;;2078147;28;20221;-62
2021/11/01 03:23:09;;;;;;;16.02;5.57;;;;;;;;;;2077718;28;20220;-62
2021/11/01 03:24:11;;;;;;;14.27;5.97;;;;;;;;;;2093964;28;20175;-61
2021/11/01 03:25:20;;;;;;;14.90;5.30;;;;;;;;;;2081784;28;20167;-60
2021/11/01 03:26:23;;;;;;;14.95;5.75;;;;;;;;;;2081143;28;20688;-62
2021/11/01 03:27:24;;;;;;;12.00;5.72;;;;;;;;;;2094581;28;20175;-62
2021/11/01 03:28:25;;;;;;;15.82;5.35;;;;;;;;;;2092974;28;20259;-62
2021/11/01 03:29:26;;;;;;;11.90;5.22;;;;;;;;;;2091375;28;20175;-61
2021/11/01 03:30:27;;;;;;;14.35;4.68;;;;;;;;;;2075635;28;20753;-62
2021/11/01 03:31:28;;;;;;;13.88;5.55;;;;;;;;;;2074203;28;20247;-60
2021/11/01 03:32:29;;;;;;;9.73;4.90;;;;;;;;;;2075084;28;20185;-61
2021/11/01 03:33:37;;;;;;;17.50;5.63;;;;;;;;;;2072969;28;20197;-61
2021/11/01 03:34:37;;;;;;;12.93;4.95;;;;;;;;;;2073626;28;20207;-64
2021/11/01 03:35:38;;;;;;;12.65;6.03;;;;;;;;;;2095702;28;20199;-61
2021/11/01 03:36:39;;;;;;;15.90;5.20;;;;;;;;;;2090468;28;20612;-61
2021/11/01 03:37:41;;;;;;;15.30;5.75;;;;;;;;;;2096260;28;20186;-60
2021/11/01 03:38:42;;;;;;;14.00;5.63;;;;;;;;;;2096675;28;20191;-62
2021/11/01 03:39:44;;;;;;;17.73;5.30;;;;;;;;;;2090181;28;20191;-61
2021/11/01 03:40:47;;;;;;;13.70;5.15;;;;;;;;;;2089662;28;20167;-61
2021/11/01 03:41:47;;;;;;;11.80;4.57;;;;;;;;;;2088228;28;20791;-62
2021/11/01 03:42:49;;;;;;;14.38;5.22;;;;;;;;;;2091425;28;20199;-61
2021/11/01 03:44:03;;;;;;;18.75;5.82;;;;;;;;;;2081603;28;20262;-63
2021/11/01 03:45:07;;;;;;;16.10;4.63;;;;;;;;;;2097109;28;20590;-62
2021/11/01 03:46:08;;;;;;;13.15;5.07;;;;;;;;;;2094438;28;20270;-61
2021/11/01 03:47:10;;;;;;;15.88;5.30;;;;;;;;;;2086210;28;20242;-61
2021/11/01 03:48:13;;;;;;;17.30;5.72;;;;;;;;;;2083895;28;20270;-63
2021/11/01 03:49:14;;;;;;;10.93;4.50;;;;;;;;;;2089097;28;20346;-62
2021/11/01 03:50:19;;;;;;;13.68;5.30;;;;;;;;;;2085753;28;20258;-60
2021/11/01 03:52:06;;;;;;;19.95;5.80;;;;;;;;;;2092229;28;20168;-62
2021/11/01 03:52:48;;;;;;;11.95;4.70;;;;;;;;;;2085385;28;20199;-61
2021/11/01 03:53:48;;;;;;;13.63;4.85;;;;;;;;;;2081385;28;20180;-63
2021/11/01 03:54:49;;;;;;;10.45;4.70;;;;;;;;;;2097789;28;20555;-62
2021/11/01 03:55:49;;;;;;;15.10;5.55;;;;;;;;;;2081681;28;20536;-61
2021/11/01 03:56:52;;;;;;;18.67;5.32;;;;;;;;;;2083368;28;20246;-61
2021/11/01 03:57:52;;;;;;;12.30;4.75;;;;;;;;;;2078976;28;20176;-60
2021/11/01 03:58:52;;;;;;;11.82;4.85;;;;;;;;;;2089177;28;20251;-61
2021/11/01 03:59:53;;;;;;;20.65;5.97;;;;;;;;;;2080336;28;20686;-62
2021/11/01 04:00:54;;;;;;;11.98;4.60;;;;;;;;;;2090826;28;20581;-57
2021/11/01 04:01:56;;;;;;;12.38;5.45;;;;;;;;;;2084447;28;20261;-59
2021/11/01 04:02:56;;;;;;;14.55;5.05;;;;;;;;;;2087845;28;20695;-61
2021/11/01 04:03:58;;;;;;;13.43;4.68;;;;;;;;;;2086146;28;20263;-63
2021/11/01 04:05:00;;;;;;;15.93;4.65;;;;;;;;;;2085831;28;20260;-61
2021/11/01 04:06:04;;;;;;;14.93;5.15;;;;;;;;;;2082217;28;20212;-62
2021/11/01 04:07:05;;;;;;;10.90;4.75;;;;;;;;;;2077808;28;20189;-60
2021/11/01 04:08:05;;;;;;;14.50;4.38;;;;;;;;;;2077956;28;20165;-60
2021/11/01 04:09:06;;;;;;;17.17;5.25;;;;;;;;;;2082680;28;20230;-61
2021/11/01 04:10:08;;;;;;;12.45;4.75;;;;;;;;;;2087277;28;20190;-61
2021/11/01 04:11:09;;;;;;;11.68;4.80;;;;;;;;;;2080639;28;20176;-61
2021/11/01 04:12:10;;;;;;;12.48;4.95;;;;;;;;;;2084621;28;20173;-63
2021/11/01 04:13:11;;;;;;;10.35;4.82;;;;;;;;;;2083119;28;20195;-61
2021/11/01 04:14:16;;;;;;;12.27;4.50;;;;;;;;;;2080529;28;20199;-63
2021/11/01 04:15:24;;;;;;;21.15;4.80;;;;;;;;;;2082046;28;20232;-60
2021/11/01 04:16:30;;;;;;;9.32;4.55;;;;;;;;;;2080978;28;20172;-60
2021/11/01 04:21:12;;;;;;;10.60;4.95;;;;;;;;;;2077071;28;20169;-62
2021/11/01 04:22:12;;;;;;;11.95;4.78;;;;;;;;;;2086556;28;20172;-62
2021/11/01 04:23:12;;;;;;;12.98;4.55;;;;;;;;;;2081189;28;20196;-60
2021/11/01 04:24:15;;;;;;;11.90;4.35;;;;;;;;;;2084692;28;20179;-60
2021/11/01 04:25:17;;;;;;;12.27;5.07;;;;;;;;;;2088597;28;20218;-61
2021/11/01 04:26:19;;;;;;;9.52;4.03;;;;;;;;;;2089398;28;20215;-62
2021/11/01 04:27:19;;;;;;;12.48;4.75;;;;;;;;;;2089855;28;20171;-63
2021/11/01 04:28:20;;;;;;;9.32;4.32;;;;;;;;;;2089508;28;20186;-61
2021/11/01 04:29:20;;;;;;;7.18;3.90;;;;;;;;;;2089010;28;20180;-61
2021/11/01 04:30:21;;;;;;;13.07;4.35;;;;;;;;;;2088459;28;20258;-63
2021/11/01 04:31:34;;;;;;;13.43;4.40;;;;;;;;;;2092320;28;20175;-64
2021/11/01 04:33:37;;;;;;;11.40;4.50;;;;;;;;;;2092199;28;20569;-63
2021/11/01 04:34:41;;;;;;;13.73;5.03;;;;;;;;;;2090884;28;20195;-61
2021/11/01 04:35:41;;;;;;;13.70;5.07;;;;;;;;;;2075462;28;20559;-63
2021/11/01 04:36:42;;;;;;;13.23;4.70;;;;;;;;;;2073825;28;20240;-63
2021/11/01 04:37:43;;;;;;;13.50;5.07;;;;;;;;;;2090976;28;20657;-62
2021/11/01 04:39:02;;;;;;;14.38;4.85;;;;;;;;;;2090778;28;20206;-64
2021/11/01 04:41:12;;;;;;;13.50;4.70;;;;;;;;;;2090557;28;20176;-64
2021/11/01 04:53:54;;;;;;;11.75;5.53;;;;;;;;;;2073695;28;20169;-64
2021/11/01 04:54:55;;;;;;;11.48;5.10;;;;;;;;;;2073882;28;20620;-56
2021/11/01 04:55:56;;;;;;;10.85;5.38;;;;;;;;;;2072480;28;20182;-62
2021/11/01 04:56:56;;;;;;;13.13;5.03;;;;;;;;;;2076784;28;20291;-63
2021/11/01 04:57:57;;;;;;;15.02;4.93;;;;;;;;;;2084079;28;20160;-61
2021/11/01 04:58:58;;;;;;;7.40;4.80;;;;;;;;;;2072593;28;20184;-60
2021/11/01 04:59:58;;;;;;;12.73;5.15;;;;;;;;;;2075108;28;20188;-63
2021/11/01 05:00:58;;;;;;;11.43;5.03;;;;;;;;;;2089211;28;20731;-61
2021/11/01 05:01:59;;;;;;;12.82;4.70;;;;;;;;;;2081623;28;20230;-61
2021/11/01 05:03:08;;;;;;;9.40;4.50;;;;;;;;;;2071155;28;20183;-62
2021/11/01 05:04:12;;;;;;;11.00;4.90;;;;;;;;;;2067736;28;20181;-65
2021/11/01 05:05:13;;;;;;;15.00;5.10;;;;;;;;;;2081844;28;20649;-63
2021/11/01 05:06:18;;;;;;;14.82;4.80;;;;;;;;;;2086103;28;20253;-61
2021/11/01 05:07:19;;;;;;;9.65;4.63;;;;;;;;;;2088908;28;20202;-62
2021/11/01 05:08:22;;;;;;;13.13;4.53;;;;;;;;;;2085625;28;20238;-62
2021/11/01 05:09:27;;;;;;;6.05;4.38;;;;;;;;;;2088499;28;20254;-62
2021/11/01 05:10:51;;;;;;;12.68;4.47;;;;;;;;;;2087917;28;20180;-63
2021/11/01 05:13:12;;;;;;;15.20;5.10;;;;;;;;;;2084043;28;20188;-62
2021/11/01 05:14:15;;;;;;;15.27;4.68;;;;;;;;;;2087927;28;20266;-62
2021/11/01 05:15:33;;;;;;;15.27;4.45;;;;;;;;;;2089874;28;20667;-61
2021/11/01 05:17:48;;;;;;;11.98;5.15;;;;;;;;;;2086328;28;20180;-62
2021/11/01 05:19:02;;;;;;;9.15;4.65;;;;;;;;;;2082904;28;20153;-62
2021/11/01 05:20:16;;;;;;;9.38;3.95;;;;;;;;;;2091876;28;20617;-63
2021/11/01 05:21:24;;;;;;;10.55;4.32;;;;;;;;;;2085332;28;20174;-62
2021/11/01 05:22:32;;;;;;;12.98;4.43;;;;;;;;;;2089135;28;20198;-63
2021/11/01 05:23:43;;;;;;;8.85;4.68;;;;;;;;;;2095732;28;20204;-63
2021/11/01 05:24:51;;;;;;;10.07;3.95;;;;;;;;;;2089852;28;20822;-64
2021/11/01 05:28:48;;;;;;;10.27;4.07;;;;;;;;;;2089099;28;20257;-62
2021/11/01 05:29:52;;;;;;;9.63;3.72;;;;;;;;;;2082378;28;20176;-60
2021/11/01 05:30:59;;;;;;;13.88;4.65;;;;;;;;;;2089511;28;20203;-61
2021/11/01 05:32:12;;;;;;;13.18;4.65;;;;;;;;;;2087315;28;20191;-60
2021/11/01 05:34:17;;;;;;;10.05;4.20;;;;;;;;;;2094670;28;20225;-61
2021/11/01 05:35:17;;;;;;;11.45;4.55;;;;;;;;;;2085726;28;20247;-62
2021/11/01 05:36:18;;;;;;;12.77;4.75;;;;;;;;;;2085130;28;20695;-62
2021/11/01 05:37:18;;;;;;;11.68;4.50;;;;;;;;;;2085196;28;20250;-60
2021/11/01 05:38:18;;;;;;;12.82;3.95;;;;;;;;;;2080971;28;20172;-62
2021/11/01 05:39:18;;;;;;;11.27;4.70;;;;;;;;;;2089021;28;20175;-63
2021/11/01 05:40:19;;;;;;;11.68;4.70;;;;;;;;;;2085502;28;20163;-61
2021/11/01 05:41:19;;;;;;;12.93;4.28;;;;;;;;;;2085195;28;20161;-62
2021/11/01 05:42:19;;;;;;;9.93;4.43;;;;;;;;;;2084359;28;20609;-61
2021/11/01 05:43:20;;;;;;;14.95;4.05;;;;;;;;;;2075881;28;20263;-61
2021/11/01 05:44:20;;;;;;;11.48;4.22;;;;;;;;;;2073522;28;20251;-63
2021/11/01 05:45:20;;;;;;;9.68;4.53;;;;;;;;;;2077868;28;20180;-62
2021/11/01 05:46:21;;;;;;;8.90;4.40;;;;;;;;;;2085508;28;20171;-62
2021/11/01 05:47:21;;;;;;;11.90;4.43;;;;;;;;;;2090914;28;21188;-63
2021/11/01 05:48:21;;;;;;;14.02;4.78;;;;;;;;;;2091331;28;20542;-62
2021/11/01 05:49:23;;;;;;;9.18;4.45;;;;;;;;;;2092986;28;20644;-63
2021/11/01 05:50:24;;;;;;;10.50;4.10;;;;;;;;;;2093848;28;20175;-62
2021/11/01 05:51:25;;;;;;;10.63;4.00;;;;;;;;;;2083829;28;20692;-60
2021/11/01 05:52:28;;;;;;;11.75;4.20;;;;;;;;;;2083168;28;20179;-64
2021/11/01 05:53:34;;;;;;;9.55;4.03;;;;;;;;;;2083515;28;20536;-62
2021/11/01 05:54:34;;;;;;;9.85;4.20;;;;;;;;;;2087990;28;20163;-63
2021/11/01 05:55:47;;;;;;;10.68;5.25;;;;;;;;;;2088927;28;20188;-62
2021/11/01 06:00:17;;;;;;;8.35;3.95;;;;;;;;;;2087617;28;21590;-62
2021/11/01 06:01:41;;;;;;;10.93;4.80;;;;;;;;;;2087017;28;20642;-60
2021/11/01 06:02:46;;;;;;;8.32;3.95;;;;;;;;;;2088745;28;20210;-62
2021/11/01 06:04:03;;;;;;;13.05;3.58;;;;;;;;;;2098095;28;20186;-62
2021/11/01 06:06:32;;;;;;;8.85;3.42;;;;;;;;;;2086852;28;20183;-60
2021/11/01 06:08:43;;;;;;;8.52;3.83;;;;;;;;;;2089335;28;20648;-64
2021/11/01 06:13:25;;;;;;;6.60;3.65;;;;;;;;;;2078771;28;20172;-61
2021/11/01 06:13:42;;;;;;;11.82;4.43;;;;;;;;;;2090141;28;20195;-62
2021/11/01 06:14:42;;;;;;;11.43;4.35;;;;;;;;;;2097529;28;20508;-62
2021/11/01 06:15:42;;;;;;;10.82;3.72;;;;;;;;;;2097903;28;20246;-63
2021/11/01 06:16:43;;;;;;;9.65;4.15;;;;;;;;;;2089464;28;20274;-64
2021/11/01 06:17:43;;;;;;;8.98;3.97;;;;;;;;;;2082586;28;20188;-61
2021/11/01 06:18:44;;;;;;;11.63;4.22;;;;;;;;;;2090136;28;20172;-60
2021/11/01 06:19:44;;;;;;;12.68;5.07;;;;;;;;;;2089931;28;20192;-61
2021/11/01 06:20:45;;;;;;;14.30;4.80;;;;;;;;;;2088312;28;20206;-59
2021/11/01 06:21:48;;;;;;;11.65;4.03;;;;;;;;;;2090443;28;20205;-61
2021/11/01 06:22:48;;;;;;;9.82;3.60;;;;;;;;;;2081116;28;20191;-60
2021/11/01 06:23:54;;;;;;;11.07;4.00;;;;;;;;;;2081167;28;20172;-61
2021/11/01 06:24:59;;;;;;;8.20;5.18;;;;;;;;;;2081930;28;20804;-57
2021/11/01 06:26:00;;;;;;;13.60;4.60;;;;;;;;;;2073207;28;20903;-63
2021/11/01 06:27:00;;;;;;;5.35;3.40;;;;;;;;;;2073851;28;20176;-60
2021/11/01 06:28:01;;;;;;;4.93;3.53;;;;;;;;;;2088877;28;20196;-64
2021/11/01 06:29:06;;;;;;;11.52;4.28;;;;;;;;;;2086069;28;20324;-62
2021/11/01 06:30:26;;;;;;;8.55;3.90;;;;;;;;;;2084617;28;20149;-63
2021/11/01 06:31:33;;;;;;;10.18;3.83;;;;;;;;;;2089600;28;20242;-64
2021/11/01 06:33:54;;;;;;;8.35;3.50;;;;;;;;;;2067836;28;20272;-63
2021/11/01 06:50:22;;;;;;;5.97;3.28;;;;;;;;;;2079831;28;21267;-63
2021/11/01 06:56:04;;;;;;;10.68;4.25;;;;;;;;;;2080723;28;20214;-64
2021/11/01 06:57:21;;;;;;;7.57;3.80;;;;;;;;;;2081246;28;20660;-65
2021/11/01 06:58:30;;;;;;;9.88;3.47;;;;;;;;;;2079520;28;20180;-65
2021/11/01 07:15:16;;;;;;;9.50;3.80;;;;;;;;;;2094830;28;20163;-63
2021/11/01 07:16:31;;;;;;;10.43;4.13;;;;;;;;;;2095855;28;20185;-64
2021/11/01 07:19:02;;;;;;;7.88;4.38;;;;;;;;;;2078049;28;20196;-62
2021/11/01 07:23:52;;;;;;;10.32;4.72;;;;;;;;;;2056622;28;20177;-63
2021/11/01 07:24:49;;;;;;;13.50;5.18;;;;;;;;;;2078649;28;20840;-63